Home > Products > Valid Products > MTR

000
SAUS46 KPQR 280253
MTRREO
METAR KREO 280252Z AUTO 30007KT 22/M06 A3015 RMK AO1 SLP184
T02171061 $





000
SAUS46 KPQR 280253
MTRREO
METAR KREO 280252Z AUTO 30007KT 22/M06 A3015 RMK AO1 SLP184
T02171061 $





000
SAUS46 KPQR 280153
MTRREO
METAR KREO 280152Z AUTO 28011KT 23/M07 A3014 RMK AO1 SLP177
T02331072 $





000
SAUS46 KPQR 280053
MTRREO
METAR KREO 280052Z AUTO 29015KT 24/M08 A3013 RMK AO1 SLP174
T02391078 $





000
SAUS46 KPQR 272353
MTRREO
METAR KREO 272352Z AUTO 26012G17KT 24/M06 A3012 RMK AO1 SLP170
T02441056 10244 20178 55000





000
SAUS46 KPQR 272253
MTRREO
METAR KREO 272252Z AUTO VRB05KT 24/M03 A3011 RMK AO1 SLP169
T02441033





000
SAUS46 KPQR 272253
MTRREO
METAR KREO 272252Z AUTO VRB05KT 24/M03 A3011 RMK AO1 SLP169
T02441033





000
SAUS46 KPQR 272153
MTRREO
METAR KREO 272152Z AUTO VRB06G19KT 23/M02 A3011 RMK AO1 SLP171
T02281022





000
SAUS46 KPQR 272053
MTRREO
METAR KREO 272052Z AUTO 00000KT 21/M03 A3012 RMK AO1 SLP172
T02111028 58003





000
SAUS46 KPQR 271953
MTRREO
METAR KREO 271952Z AUTO 30013G18KT 21/M02 A3012 RMK AO1 SLP173
T02111022





000
SAUS46 KPQR 271853
MTRREO
METAR KREO 271852Z AUTO 28008KT 19/00 A3013 RMK AO1 SLP177 T01890000





000
SAUS46 KPQR 271753
MTRREO
METAR KREO 271752Z AUTO 29011G18KT 18/02 A3013 RMK AO1 SLP176
T01780017 10183 20122 51008





000
SAUS46 KPQR 271753
MTRREO
METAR KREO 271752Z AUTO 29011G18KT 18/02 A3013 RMK AO1 SLP176
T01780017 10183 20122 51008





000
SAUS46 KPQR 271653
MTRREO
METAR KREO 271652Z AUTO 29012G18KT 17/02 A3012 RMK AO1 SLP174
T01670017





000
SAUS46 KPQR 271653
MTRREO
METAR KREO 271652Z AUTO 29012G18KT 17/02 A3012 RMK AO1 SLP174
T01670017





000
SAUS46 KPQR 271553
MTRREO
METAR KREO 271552Z AUTO 30011KT 16/02 A3012 RMK AO1 SLP171 T01560022





000
SAUS46 KPQR 271453
MTRREO
METAR KREO 271452Z AUTO 31009KT 14/03 A3010 RMK AO1 SLP167 T01390033
51016





000
SAUS46 KPQR 271453
MTRREO
METAR KREO 271452Z AUTO 31009KT 14/03 A3010 RMK AO1 SLP167 T01390033
51016





000
SAUS46 KPQR 271353
MTRREO
METAR KREO 271352Z AUTO 28008KT 13/03 A3009 RMK AO1 SLP161 T01280033





000
SAUS46 KPQR 271258
MTRREO
METAR KREO 271252Z AUTO 29004KT 12/03 A3007 RMK AO1 SLP154 T01220033





000
SAUS46 KPQR 271153
MTRREO
METAR KREO 271152Z AUTO 31005KT 13/03 A3005 RMK AO1 SLP145 T01280033
10172 20106 53011





000
SAUS46 KPQR 271153
MTRREO
METAR KREO 271152Z AUTO 31005KT 13/03 A3005 RMK AO1 SLP145 T01280033
10172 20106 53011





000
SAUS46 KPQR 271053
MTRREO
METAR KREO 271052Z AUTO VRB03KT 11/04 A3003 RMK AO1 SLP137 T01060039





000
SAUS46 KPQR 270953
MTRREO
METAR KREO 270952Z AUTO VRB03KT 13/07 A3001 RMK AO1 SLP129 T01280067





000
SAUS46 KPQR 270853
MTRREO
METAR KREO 270852Z AUTO 27003KT 14/07 A3002 RMK AO1 SLP129 T01440072
50004





000
SAUS46 KPQR 270753
MTRREO
METAR KREO 270752Z AUTO 30006KT 14/07 A3002 RMK AO1 PK WND
31027/0709 SLP132 T01440067 403000144





000
SAUS46 KPQR 270753
MTRREO
METAR KREO 270752Z AUTO 30006KT 14/07 A3002 RMK AO1 PK WND
31027/0709 SLP132 T01440067 403000144





000
SAUS46 KPQR 270653
MTRREO
METAR KREO 270652Z AUTO 31007KT 17/07 A3003 RMK AO1 SLP133 T01670072





000
SAUS46 KPQR 270553
MTRREO
METAR KREO 270552Z AUTO 33012KT 17/07 A3000 RMK AO1 WSHFT 0455
SLP124 T01720072 10261 20172 51027





000
SAUS46 KPQR 270553
MTRREO
METAR KREO 270552Z AUTO 33012KT 17/07 A3000 RMK AO1 WSHFT 0455
SLP124 T01720072 10261 20172 51027





000
SAUS46 KPQR 270513
MTRREO
SPECI KREO 270512Z AUTO 36014KT 18/09 A2999 RMK AO1 WSHFT 0455
T01780089





000
SAUS46 KPQR 270453
MTRREO
METAR KREO 270452Z AUTO 31010KT 18/07 A2999 RMK AO1 SLP119 T01830072





000
SAUS46 KPQR 270453
MTRREO
METAR KREO 270452Z AUTO 31010KT 18/07 A2999 RMK AO1 SLP119 T01830072





000
SAUS46 KPQR 270353
MTRREO
METAR KREO 270352Z AUTO 02008KT 21/06 A2993 RMK AO1 SLP101 T02060061





000
SAUS46 KPQR 270253
MTRREO
METAR KREO 270252Z AUTO 31013KT 22/06 A2991 RMK AO1 SLP093 T02170056
53007





000
SAUS46 KPQR 270253
MTRREO
METAR KREO 270252Z AUTO 31013KT 22/06 A2991 RMK AO1 SLP093 T02170056
53007





000
SAUS46 KPQR 270153
MTRREO
METAR KREO 270152Z AUTO 06004KT 24/07 A2990 RMK AO1 SLP089 T02390067





000
SAUS46 KPQR 270053
MTRREO
METAR KREO 270052Z AUTO 34013KT 25/07 A2989 RMK AO1 SLP087 T02500067





000
SAUS46 KPQR 270053
MTRREO
METAR KREO 270052Z AUTO 34013KT 25/07 A2989 RMK AO1 SLP087 T02500067





000
SAUS46 KPQR 262353
MTRREO
METAR KREO 262352Z AUTO 32017G26KT 26/07 A2989 RMK AO1 PK WND
32026/2343 SLP085 T02560067 10300 20233 56016





000
SAUS46 KPQR 262253
MTRREO
METAR KREO 262252Z AUTO 33012KT 28/04 A2989 RMK AO1 SLP082 T02780044





000
SAUS46 KPQR 262253
MTRREO
METAR KREO 262252Z AUTO 33012KT 28/04 A2989 RMK AO1 SLP082 T02780044





000
SAUS46 KPQR 262153
MTRREO
METAR KREO 262152Z AUTO 29007KT 28/02 A2990 RMK AO1 SLP086 T02830022





000
SAUS46 KPQR 262053
MTRREO
METAR KREO 262052Z AUTO VRB04KT 27/04 A2994 RMK AO1 SLP099 T02670044





000
SAUS46 KPQR 261953
MTRREO
METAR KREO 261952Z AUTO VRB03KT 26/05 A2997 RMK AO1 SLP106 T02610050





000
SAUS46 KPQR 261853
MTRREO
METAR KREO 261852Z AUTO 26/06 A2999 RMK AO1 SLP117 T02560061





000
SAUS46 KPQR 261853
MTRREO
METAR KREO 261852Z AUTO 26/06 A2999 RMK AO1 SLP117 T02560061





000
SAUS46 KPQR 261753
MTRREO
METAR KREO 261752Z AUTO 09007KT 24/06 A3001 RMK AO1 SLP126 T02390061
10239 20144 58007





000
SAUS46 KPQR 261653
MTRREO
METAR KREO 261652Z AUTO VRB05KT 23/07 A3002 RMK AO1 SLP128 T02280067





000
SAUS46 KPQR 261553
MTRREO
METAR KREO 261552Z AUTO 07007KT 21/07 A3003 RMK AO1 SLP131 T02060067





000
SAUS46 KPQR 261453
MTRREO
METAR KREO 261452Z AUTO 04010KT 19/07 A3003 RMK AO1 SLP127 T01890067
51006





000
SAUS46 KPQR 261353
MTRREO
METAR KREO 261352Z AUTO 04008KT 17/07 A3003 RMK AO1 SLP127 T01720067





000
SAUS46 KPQR 261257
MTRREO
METAR KREO 261252Z AUTO 05009KT 15/07 A3003 RMK AO1 SLP125 T01500067





000
SAUS46 KPQR 261257
MTRREO
METAR KREO 261252Z AUTO 05009KT 15/07 A3003 RMK AO1 SLP125 T01500067





000
SAUS46 KPQR 261153
MTRREO
METAR KREO 261152Z AUTO 04008KT 16/07 A3001 RMK AO1 SLP119 T01560067
10206 20156 53004





000
SAUS46 KPQR 261053
MTRREO
METAR KREO 261052Z AUTO 05008KT 16/07 A3000 RMK AO1 SLP117 T01610067





000
SAUS46 KPQR 260953
MTRREO
METAR KREO 260952Z AUTO 05008KT 16/06 A3000 RMK AO1 SLP116 T01610061





000
SAUS46 KPQR 260853
MTRREO
METAR KREO 260852Z AUTO 35005KT 18/06 A3000 RMK AO1 SLP113 T01780056
51006





000
SAUS46 KPQR 260755
MTRREO
METAR KREO 260752Z AUTO 36005KT 21/06 A3000 RMK AO1 SLP111 T02060056
403330133





000
SAUS46 KPQR 260653
MTRREO
METAR KREO 260652Z AUTO 00000KT 19/M02 A2999 RMK AO1 SLP112
T01891017





000
SAUS46 KPQR 260653
MTRREO
METAR KREO 260652Z AUTO 00000KT 19/M02 A2999 RMK AO1 SLP112
T01891017





000
SAUS46 KPQR 260553
MTRREO
METAR KREO 260552Z AUTO 22004KT 18/M06 A2998 RMK AO1 SLP112
T01831056 10333 20183 53010





000
SAUS46 KPQR 260458 COR
MTRREO
METAR KREO 260452Z AUTO 20005KT 21/M07 A2997 RMK AO1 SLP107
T02061067





000
SAUS46 KPQR 260458 COR
MTRREO
METAR KREO 260452Z AUTO 20005KT 21/M07 A2997 RMK AO1 SLP107
T02061067





000
SAUS46 KPQR 260453
MTRREO
METAR KREO 260452Z AUTO 20005KT 21/M07 A2997 RMK AO1 SLP107
T02061067





000
SAUS46 KPQR 260353
MTRREO
METAR KREO 260352Z AUTO 19005KT 23/M07 A2996 RMK AO1 SLP103
T02281072





000
SAUS46 KPQR 260253
MTRREO
METAR KREO 260252Z AUTO 25010KT 29/M09 A2995 RMK AO1 SLP094
T02891089 55003





000
SAUS46 KPQR 260253
MTRREO
METAR KREO 260252Z AUTO 25010KT 29/M09 A2995 RMK AO1 SLP094
T02891089 55003





000
SAUS46 KPQR 260153
MTRREO
METAR KREO 260152Z AUTO 26014G19KT 31/M09 A2994 RMK AO1 SLP094
T03061094





000
SAUS46 KPQR 260053
MTRREO
METAR KREO 260052Z AUTO 24009G20KT 32/M08 A2994 RMK AO1 SLP098
T03221078





000
SAUS46 KPQR 252353
MTRREO
METAR KREO 252352Z AUTO 18009G22KT 33/M08 A2996 RMK AO1 SLP099
T03281078 10333 20267





000
SAUS46 KPQR 252353
MTRREO
METAR KREO 252352Z AUTO 18009G22KT 33/M08 A2996 RMK AO1 SLP099
T03281078 10333 20267





000
SAUS46 KPQR 252253
MTRREO
METAR KREO 252252Z AUTO 22008KT 32/M07 A2999 RMK AO1 SLP107
T03221067





000
SAUS46 KPQR 252253
MTRREO
METAR KREO 252252Z AUTO 22008KT 32/M07 A2999 RMK AO1 SLP107
T03221067





000
SAUS46 KPQR 252153
MTRREO
METAR KREO 252152Z AUTO 23015G24KT 33/M06 A3001 RMK AO1 PK WND
22030/2054 SLP115 T03281061





000
SAUS46 KPQR 252053
MTRREO
METAR KREO 252052Z AUTO 21023G29KT 32/M07 A3002 RMK AO1 PK WND
21032/2039 SLP119 T03221067 58023





000
SAUS46 KPQR 251953
MTRREO
METAR KREO 251952Z AUTO 16007G17KT 130V200 31/01 A3005 RMK AO1
SLP130 T03060006





000
SAUS46 KPQR 251953
MTRREO
METAR KREO 251952Z AUTO 16007G17KT 130V200 31/01 A3005 RMK AO1
SLP130 T03060006





000
SAUS46 KPQR 251853
MTRREO
METAR KREO 251852Z AUTO VRB05KT 28/02 A3008 RMK AO1 SLP143 T02830017





000
SAUS46 KPQR 251853
MTRREO
METAR KREO 251852Z AUTO VRB05KT 28/02 A3008 RMK AO1 SLP143 T02830017





000
SAUS46 KPQR 251753
MTRREO
METAR KREO 251752Z AUTO 00000KT 27/03 A3010 RMK AO1 SLP150 T02670028
10272 20133 58008





000
SAUS46 KPQR 251653
MTRREO
METAR KREO 251652Z AUTO 15006KT 26/03 A3011 RMK AO1 SLP155 T02610028





000
SAUS46 KPQR 251553
MTRREO
METAR KREO 251552Z AUTO 00000KT 24/03 A3012 RMK AO1 SLP156 T02390028





000
SAUS46 KPQR 251453
MTRREO
METAR KREO 251452Z AUTO 00000KT 22/02 A3013 RMK AO1 SLP155 T02170022
53009





000
SAUS46 KPQR 251353
MTRREO
METAR KREO 251352Z AUTO 29003KT 18/02 A3012 RMK AO1 SLP156 T01830017





000
SAUS46 KPQR 251353
MTRREO
METAR KREO 251352Z AUTO 29003KT 18/02 A3012 RMK AO1 SLP156 T01830017





000
SAUS46 KPQR 251258
MTRREO
METAR KREO 251252Z AUTO 15006KT 13/01 A3010 RMK AO1 SLP154 T01330011





000
SAUS46 KPQR 251258
MTRREO
METAR KREO 251252Z AUTO 15006KT 13/01 A3010 RMK AO1 SLP154 T01330011





000
SAUS46 KPQR 251153
MTRREO
METAR KREO 251152Z AUTO 17005KT 16/00 A3010 RMK AO1 SLP149 T01610000
10211 20150 53005





000
SAUS46 KPQR 251153
MTRREO
METAR KREO 251152Z AUTO 17005KT 16/00 A3010 RMK AO1 SLP149 T01610000
10211 20150 53005





000
SAUS46 KPQR 251053
MTRREO
METAR KREO 251052Z AUTO 20008KT 19/M01 A3009 RMK AO1 SLP142
T01891011





000
SAUS46 KPQR 250953
MTRREO
METAR KREO 250952Z AUTO 21010KT 19/M04 A3009 RMK AO1 SLP142
T01941039





000
SAUS46 KPQR 250853
MTRREO
METAR KREO 250852Z AUTO 20009KT 19/M04 A3008 RMK AO1 SLP140
T01941044 53002





000
SAUS46 KPQR 250853
MTRREO
METAR KREO 250852Z AUTO 20009KT 19/M04 A3008 RMK AO1 SLP140
T01941044 53002





000
SAUS46 KPQR 250753
MTRREO
METAR KREO 250752Z AUTO 18009KT 19/M04 A3008 RMK AO1 SLP141
T01891039 403280106





000
SAUS46 KPQR 250654
MTRREO
METAR KREO 250652Z AUTO 18008KT 21/M04 A3007 RMK AO1 SLP139
T02061039





000
SAUS46 KPQR 250654
MTRREO
METAR KREO 250652Z AUTO 18008KT 21/M04 A3007 RMK AO1 SLP139
T02061039





000
SAUS46 KPQR 250553
MTRREO
METAR KREO 250552Z AUTO 17008KT 21/M02 A3007 RMK AO1 SLP141
T02061022 10328 20189 53015





000
SAUS46 KPQR 250553
MTRREO
METAR KREO 250552Z AUTO 17008KT 21/M02 A3007 RMK AO1 SLP141
T02061022 10328 20189 53015





000
SAUS46 KPQR 250453
MTRREO
METAR KREO 250452Z AUTO 14006KT 22/M02 A3006 RMK AO1 SLP136
T02171022





000
SAUS46 KPQR 250353
MTRREO
METAR KREO 250352Z AUTO 30004KT 26/M03 A3004 RMK AO1 SLP126
T02561028





    US Dept of Commerce
    National Oceanic and Atmospheric Administration
    National Weather Service
    1325 East West Highway
    Silver Spring, MD 20910
    Page Author: NWS Internet Services Team
Disclaimer
Information Quality
Credits
Glossary
Privacy Policy
Freedom of Information Act (FOIA)
About Us
Career Opportunities